| time (UTC) | temp C | wind direction | speed KPH | gust KPH | rain 1hr cm | rain 24hr cm | rain mn cm | humidity % | barometer mb |
| 20260507161509 | 13 | 32 | 6.4 | 11.3 | 0.00 | 0.00 | 0.00 | 22 | 1014.7 |
| 20260507160513 | 13 | 317 | 8.0 | 11.3 | 0.00 | 0.00 | 0.00 | 22 | 1014.8 |
| 20260507155611 | 12 | 9 | 8.0 | 14.5 | 0.00 | 0.00 | 0.00 | 22 | 1014.7 |
| 20260507154613 | 12 | 311 | 4.8 | 9.7 | 0.00 | 0.00 | 0.00 | 24 | 1014.9 |
| 20260507153710 | 12 | 345 | 3.2 | 6.4 | 0.00 | 0.00 | 0.00 | 24 | 1014.9 |
| 20260507152711 | 11 | 334 | 6.4 | 8.0 | 0.00 | 0.00 | 0.00 | 26 | 1014.9 |
| 20260507151711 | 11 | 247 | 4.8 | 6.4 | 0.00 | 0.00 | 0.00 | 26 | 1015.0 |
| 20260507150710 | 10 | 253 | 9.7 | 14.5 | 0.00 | 0.00 | 0.00 | 29 | 1014.9 |
| 20260507145712 | 10 | 258 | 12.9 | 16.1 | 0.00 | 0.00 | 0.00 | 31 | 1014.9 |
| 20260507143809 | 8 | 247 | 14.5 | 17.7 | 0.00 | 0.00 | 0.00 | 34 | 1014.7 |
| 20260507142811 | 8 | 247 | 14.5 | 19.3 | 0.00 | 0.00 | 0.00 | 36 | 1014.7 |
| 20260507141812 | 8 | 247 | 12.9 | 14.5 | 0.00 | 0.00 | 0.00 | 37 | 1014.6 |
| 20260507140813 | 7 | 247 | 12.9 | 16.1 | 0.00 | 0.00 | 0.00 | 40 | 1014.7 |
| 20260507135909 | 7 | 247 | 11.3 | 14.5 | 0.00 | 0.00 | 0.00 | 41 | 1014.6 |
| 20260507134912 | 7 | 248 | 9.7 | 12.9 | 0.00 | 0.00 | 0.00 | 41 | 1014.6 |
| 20260507133912 | 6 | 247 | 12.9 | 17.7 | 0.00 | 0.00 | 0.00 | 45 | 1014.5 |
| 20260507132915 | 5 | 247 | 11.3 | 14.5 | 0.00 | 0.00 | 0.00 | 48 | 1014.5 |
| 20260507131912 | 3 | 248 | 9.7 | 14.5 | 0.00 | 0.00 | 0.00 | 54 | 1014.4 |
| 20260507130011 | 0 | 247 | 4.8 | 6.4 | 0.00 | 0.00 | 0.00 | 63 | 1014.1 |
| 20260507125012 | 0 | 247 | 4.8 | 6.4 | 0.00 | 0.00 | 0.00 | 64 | 1014.0 |
| 20260507124111 | -1 | 247 | 6.4 | 6.4 | 0.00 | 0.00 | 0.00 | 68 | 1013.7 |
| 20260507123111 | -2 | 247 | 4.8 | 4.8 | 0.00 | 0.00 | 0.00 | 68 | 1013.5 |
| 20260507122112 | -2 | 270 | 4.8 | 6.4 | 0.00 | 0.00 | 0.00 | 67 | 1013.4 |
| 20260507121111 | -2 | 270 | 6.4 | 6.4 | 0.00 | 0.00 | 0.00 | 66 | 1013.2 |
| 20260507120110 | -2 | 291 | 4.8 | 6.4 | 0.00 | 0.00 | 0.00 | 66 | 1013.2 |
| 20260507115111 | -3 | 292 | 6.4 | 6.4 | 0.00 | 0.00 | 0.00 | 68 | 1012.9 |
| 20260507114111 | -3 | 292 | 6.4 | 6.4 | 0.00 | 0.00 | 0.00 | 66 | 1012.9 |
| 20260507113111 | -2 | 292 | 4.8 | 6.4 | 0.00 | 0.00 | 0.00 | 64 | 1012.9 |
| 20260507112111 | -2 | 292 | 3.2 | 4.8 | 0.00 | 0.00 | 0.00 | 63 | 1012.9 |
| 20260507111111 | -2 | 292 | 4.8 | 4.8 | 0.00 | 0.00 | 0.00 | 65 | 1012.8 |
| 20260507110111 | -2 | 292 | 3.2 | 3.2 | 0.00 | 0.00 | 0.00 | 65 | 1012.9 |
| 20260507105110 | -2 | 292 | 3.2 | 4.8 | 0.00 | 0.00 | 0.00 | 65 | 1012.9 |
| 20260507103110 | -2 | 292 | 4.8 | 4.8 | 0.00 | 0.00 | 0.00 | 65 | 1012.9 |
| 20260507102110 | -2 | 292 | 1.6 | 1.6 | 0.00 | 0.00 | 0.00 | 61 | 1013.0 |
| 20260507101126 | -1 | 292 | 1.6 | 1.6 | 0.00 | 0.00 | 0.00 | 60 | 1013.1 |
| 20260507100212 | -2 | 292 | 0.0 | 0.0 | 0.00 | 0.00 | 0.00 | 62 | 1013.1 |
| 20260507095211 | -2 | 292 | 1.6 | 1.6 | 0.00 | 0.00 | 0.00 | 63 | 1013.3 |
| 20260507094212 | -2 | 292 | 0.0 | 0.0 | 0.00 | 0.00 | 0.00 | 61 | 1013.2 |
| 20260507093310 | -1 | 292 | 0.0 | 0.0 | 0.00 | 0.00 | 0.00 | 57 | 1013.4 |
| 20260507092312 | 0 | 292 | 0.0 | 0.0 | 0.00 | 0.00 | 0.00 | 55 | 1013.4 |
| 20260507091312 | 0 | 292 | 0.0 | 1.6 | 0.00 | 0.00 | 0.00 | 55 | 1013.4 |
| 20260507090410 | 0 | 292 | 3.2 | 4.8 | 0.00 | 0.00 | 0.00 | 58 | 1013.4 |
| 20260507084412 | 0 | 292 | 3.2 | 3.2 | 0.00 | 0.00 | 0.00 | 55 | 1013.3 |
| 20260507083411 | 0 | 292 | 3.2 | 3.2 | 0.00 | 0.00 | 0.00 | 54 | 1013.3 |
| 20260507082509 | 0 | 292 | 3.2 | 3.2 | 0.00 | 0.00 | 0.00 | 55 | 1013.4 |
| 20260507074609 | 0 | 292 | 3.2 | 4.8 | 0.00 | 0.00 | 0.00 | 57 | 1013.4 |
| 20260507073611 | 0 | 270 | 1.6 | 1.6 | 0.00 | 0.00 | 0.00 | 56 | 1013.4 |
| 20260507072612 | 0 | 270 | 3.2 | 3.2 | 0.00 | 0.00 | 0.00 | 56 | 1013.4 |
| 20260507071711 | 0 | 292 | 3.2 | 3.2 | 0.00 | 0.00 | 0.00 | 55 | 1013.4 |
| 20260507065712 | 0 | 292 | 6.4 | 8.0 | 0.00 | 0.00 | 0.00 | 55 | 1013.6 |
| 20260507064712 | 0 | 247 | 1.6 | 3.2 | 0.00 | 0.00 | 0.00 | 54 | 1013.5 |
| 20260507063713 | 0 | 247 | 1.6 | 1.6 | 0.00 | 0.00 | 0.00 | 52 | 1013.7 |
| 20260507062712 | 0 | 270 | 3.2 | 4.8 | 0.00 | 0.00 | 0.00 | 52 | 1013.7 |
| 20260507061710 | 0 | 360 | 0.0 | 0.0 | 0.00 | 0.00 | 0.00 | 52 | 1013.7 |
| 20260507060711 | 0 | 360 | 0.0 | 0.0 | 0.00 | 0.00 | 0.00 | 53 | 1013.8 |
| 20260507055809 | 0 | 360 | 3.2 | 3.2 | 0.00 | 0.00 | 0.00 | 50 | 1013.8 |
| 20260507054806 | 0 | 247 | 3.2 | 3.2 | 0.00 | 0.00 | 0.00 | 51 | 1013.7 |
| 20260507053807 | 0 | 247 | 0.0 | 1.6 | 0.00 | 0.00 | 0.00 | 50 | 1013.7 |
| 20260507052808 | 0 | 247 | 1.6 | 1.6 | 0.00 | 0.00 | 0.00 | 50 | 1013.8 |
| 20260507050806 | 2 | 234 | 1.6 | 3.2 | 0.00 | 0.00 | 0.00 | 45 | 1014.0 |
| 20260507045808 | 2 | 67 | 0.0 | 1.6 | 0.00 | 0.00 | 0.00 | 44 | 1013.9 |
| 20260507044907 | 2 | 67 | 1.6 | 3.2 | 0.00 | 0.00 | 0.00 | 45 | 1014.0 |
| 20260507043907 | 2 | 180 | 1.6 | 4.8 | 0.00 | 0.00 | 0.00 | 45 | 1014.0 |
| 20260507043006 | 2 | 180 | 0.0 | 0.0 | 0.00 | 0.00 | 0.00 | 44 | 1014.0 |
| 20260507042009 | 2 | 180 | 0.0 | 1.6 | 0.00 | 0.00 | 0.00 | 44 | 1014.0 |
| 20260507041008 | 3 | 67 | 1.6 | 3.2 | 0.00 | 0.00 | 0.00 | 43 | 1014.1 |
| 20260507040008 | 3 | 180 | 0.0 | 0.0 | 0.00 | 0.00 | 0.00 | 43 | 1014.3 |
| 20260507035006 | 3 | 180 | 3.2 | 4.8 | 0.00 | 0.00 | 0.00 | 41 | 1014.3 |
| 20260507034008 | 4 | 180 | 1.6 | 3.2 | 0.00 | 0.00 | 0.00 | 40 | 1014.4 |
| 20260507033006 | 5 | 67 | 4.8 | 4.8 | 0.00 | 0.00 | 0.00 | 37 | 1014.3 |
| 20260507032006 | 5 | 180 | 3.2 | 4.8 | 0.00 | 0.00 | 0.00 | 34 | 1014.4 |
| 20260507031005 | 5 | 67 | 6.4 | 8.0 | 0.00 | 0.00 | 0.00 | 30 | 1014.5 |
| 20260507030007 | 6 | 337 | 0.0 | 0.0 | 0.00 | 0.00 | 0.00 | 27 | 1014.3 |
| 20260507025008 | 6 | 337 | 0.0 | 0.0 | 0.00 | 0.00 | 0.00 | 26 | 1014.5 |
| 20260507024106 | 7 | 337 | 1.6 | 1.6 | 0.00 | 0.00 | 0.00 | 26 | 1014.5 |
| 20260507023106 | 6 | 337 | 3.2 | 3.2 | 0.00 | 0.00 | 0.00 | 26 | 1014.4 |
| 20260507022107 | 7 | 337 | 3.2 | 3.2 | 0.00 | 0.00 | 0.00 | 27 | 1014.5 |
| 20260507021108 | 7 | 337 | 1.6 | 3.2 | 0.00 | 0.00 | 0.00 | 27 | 1014.5 |
| 20260507015208 | 8 | 337 | 3.2 | 4.8 | 0.00 | 0.00 | 0.00 | 26 | 1014.9 |
| 20260507014221 | 8 | 315 | 3.2 | 4.8 | 0.00 | 0.00 | 0.00 | 26 | 1014.9 |
| 20260507013207 | 9 | 292 | 4.8 | 6.4 | 0.00 | 0.00 | 0.00 | 24 | 1015.0 |
| 20260507012306 | 10 | 328 | 3.2 | 4.8 | 0.00 | 0.00 | 0.00 | 23 | 1014.9 |
| 20260507010406 | 10 | 295 | 4.8 | 6.4 | 0.00 | 0.00 | 0.00 | 22 | 1015.0 |
| 20260507003407 | 11 | 292 | 8.0 | 12.9 | 0.00 | 0.00 | 0.00 | 20 | 1015.3 |
| 20260507002407 | 11 | 292 | 14.5 | 19.3 | 0.00 | 0.00 | 0.00 | 20 | 1015.2 |
| 20260507001505 | 11 | 329 | 8.0 | 9.7 | 0.00 | 0.00 | 0.00 | 20 | 1015.4 |
| 20260507000506 | 11 | 336 | 9.7 | 12.9 | 0.00 | 0.00 | 0.00 | 20 | 1015.4 |
| 20260506235508 | 11 | 331 | 6.4 | 9.7 | 0.00 | 0.00 | 0.00 | 19 | 1015.4 |
| 20260506234508 | 11 | 281 | 9.7 | 11.3 | 0.00 | 0.00 | 0.00 | 20 | 1015.6 |
| 20260506233505 | 11 | 292 | 12.9 | 17.7 | 0.00 | 0.00 | 0.00 | 20 | 1015.5 |
| 20260506232507 | 11 | 278 | 8.0 | 9.7 | 0.00 | 0.00 | 0.00 | 21 | 1015.7 |
| 20260506230507 | 11 | 285 | 16.1 | 22.5 | 0.00 | 0.00 | 0.00 | 21 | 1015.6 |
| 20260506225509 | 11 | 263 | 14.5 | 24.1 | 0.00 | 0.00 | 0.00 | 21 | 1015.7 |
| 20260506224505 | 11 | 292 | 12.9 | 17.7 | 0.00 | 0.00 | 0.00 | 21 | 1016.0 |
| 20260506222508 | 11 | 260 | 14.5 | 17.7 | 0.00 | 0.00 | 0.00 | 22 | 1016.2 |
| 20260506221606 | 12 | 297 | 11.3 | 14.5 | 0.00 | 0.00 | 0.00 | 23 | 1016.4 |
| 20260506220608 | 11 | 282 | 8.0 | 11.3 | 0.00 | 0.00 | 0.00 | 24 | 1016.4 |
| 20260506214708 | 11 | 282 | 16.1 | 20.9 | 0.00 | 0.00 | 0.00 | 24 | 1016.8 |
| 20260506212808 | 11 | 303 | 8.0 | 12.9 | 0.00 | 0.00 | 0.00 | 25 | 1017.0 |
| 20260506211905 | 11 | 282 | 14.5 | 22.5 | 0.00 | 0.00 | 0.00 | 25 | 1017.1 |
| 20260506211807 | 11 | 258 | 16.1 | 24.1 | 0.00 | 0.00 | 0.00 | 25 | 1017.1 |
| 20260506210807 | 10 | 273 | 14.5 | 19.3 | 0.00 | 0.00 | 0.00 | 26 | 1017.2 |
| 20260506205808 | 10 | 243 | 9.7 | 12.9 | 0.00 | 0.00 | 0.00 | 26 | 1017.4 |
| 20260506204905 | 10 | 269 | 11.3 | 24.1 | 0.00 | 0.00 | 0.00 | 26 | 1017.5 |
| 20260506203906 | 10 | 280 | 9.7 | 14.5 | 0.00 | 0.00 | 0.00 | 26 | 1017.7 |
| 20260506202908 | 10 | 255 | 9.7 | 16.1 | 0.00 | 0.00 | 0.00 | 26 | 1017.6 |
| 20260506201905 | 10 | 290 | 14.5 | 20.9 | 0.00 | 0.00 | 0.00 | 27 | 1017.8 |
| 20260506200907 | 10 | 300 | 11.3 | 12.9 | 0.00 | 0.00 | 0.00 | 27 | 1018.0 |
| 20260506195906 | 10 | 252 | 19.3 | 30.6 | 0.00 | 0.00 | 0.00 | 29 | 1018.0 |
| 20260506194907 | 9 | 273 | 24.1 | 32.2 | 0.00 | 0.00 | 0.00 | 29 | 1018.1 |
| 20260506194006 | 8 | 253 | 19.3 | 24.1 | 0.00 | 0.00 | 0.00 | 30 | 1018.3 |
| 20260506193008 | 9 | 301 | 12.9 | 17.7 | 0.00 | 0.00 | 0.00 | 30 | 1018.7 |
| 20260506192007 | 10 | 257 | 3.2 | 6.4 | 0.00 | 0.00 | 0.00 | 31 | 1018.8 |
| 20260506191007 | 9 | 301 | 9.7 | 16.1 | 0.00 | 0.00 | 0.00 | 31 | 1018.9 |
| 20260506190007 | 9 | 292 | 8.0 | 11.3 | 0.00 | 0.00 | 0.00 | 31 | 1018.9 |
| 20260506184008 | 8 | 294 | 20.9 | 29.0 | 0.00 | 0.00 | 0.00 | 34 | 1019.1 |
| 20260506183024 | 7 | 304 | 17.7 | 22.5 | 0.00 | 0.00 | 0.00 | 33 | 1019.4 |
| 20260506181107 | 8 | 317 | 12.9 | 19.3 | 0.00 | 0.00 | 0.00 | 33 | 1019.6 |
| 20260506180107 | 8 | 318 | 12.9 | 17.7 | 0.00 | 0.00 | 0.00 | 33 | 1019.9 |
| 20260506175205 | 8 | 310 | 11.3 | 20.9 | 0.00 | 0.00 | 0.00 | 33 | 1019.9 |
| 20260506174207 | 7 | 299 | 11.3 | 20.9 | 0.00 | 0.00 | 0.00 | 34 | 1019.9 |
| 20260506172208 | 7 | 290 | 14.5 | 19.3 | 0.00 | 0.00 | 0.00 | 34 | 1020.2 |
| 20260506171305 | 7 | 309 | 14.5 | 20.9 | 0.00 | 0.00 | 0.00 | 34 | 1020.4 |
| 20260506165307 | 6 | 309 | 16.1 | 20.9 | 0.00 | 0.00 | 0.00 | 35 | 1020.4 |
| 20260506164405 | 6 | 324 | 11.3 | 16.1 | 0.00 | 0.00 | 0.00 | 37 | 1020.7 |
| 20260506163408 | 6 | 294 | 17.7 | 27.4 | 0.00 | 0.00 | 0.00 | 38 | 1020.7 |
| 20260506162407 | 6 | 303 | 12.9 | 17.7 | 0.00 | 0.00 | 0.00 | 38 | 1020.8 |